sensor_id;sensor_type;location;lat;lon;timestamp;temperature;humidity
69731;SHT31;56996;48.138;11.538;2023-07-16T00:02:02;24.00;59.50
69731;SHT31;56996;48.138;11.538;2023-07-16T00:04:28;23.89;59.64
69731;SHT31;56996;48.138;11.538;2023-07-16T00:06:57;23.75;60.72
69731;SHT31;56996;48.138;11.538;2023-07-16T00:09:26;23.64;61.01
69731;SHT31;56996;48.138;11.538;2023-07-16T00:11:54;23.57;60.73
69731;SHT31;56996;48.138;11.538;2023-07-16T00:14:21;23.52;61.50
69731;SHT31;56996;48.138;11.538;2023-07-16T00:16:47;23.48;61.40
69731;SHT31;56996;48.138;11.538;2023-07-16T00:19:14;23.44;61.61
69731;SHT31;56996;48.138;11.538;2023-07-16T00:21:44;23.40;61.76
69731;SHT31;56996;48.138;11.538;2023-07-16T00:24:13;23.39;61.52
69731;SHT31;56996;48.138;11.538;2023-07-16T00:26:40;23.39;61.48
69731;SHT31;56996;48.138;11.538;2023-07-16T00:29:07;23.41;61.60
69731;SHT31;56996;48.138;11.538;2023-07-16T00:31:34;23.40;62.13
69731;SHT31;56996;48.138;11.538;2023-07-16T00:34:00;23.34;61.89
69731;SHT31;56996;48.138;11.538;2023-07-16T00:36:27;23.34;61.90
69731;SHT31;56996;48.138;11.538;2023-07-16T00:38:54;23.33;61.93
69731;SHT31;56996;48.138;11.538;2023-07-16T00:41:21;23.36;62.01
69731;SHT31;56996;48.138;11.538;2023-07-16T00:43:47;23.33;62.14
69731;SHT31;56996;48.138;11.538;2023-07-16T00:46:14;23.33;62.12
69731;SHT31;56996;48.138;11.538;2023-07-16T00:48:44;23.33;62.18
69731;SHT31;56996;48.138;11.538;2023-07-16T00:51:11;23.33;62.22
69731;SHT31;56996;48.138;11.538;2023-07-16T00:53:40;23.33;62.31
69731;SHT31;56996;48.138;11.538;2023-07-16T00:56:10;23.32;62.62
69731;SHT31;56996;48.138;11.538;2023-07-16T00:58:43;23.27;62.84
69731;SHT31;56996;48.138;11.538;2023-07-16T01:01:11;23.27;62.81
69731;SHT31;56996;48.138;11.538;2023-07-16T01:03:37;23.28;62.92
69731;SHT31;56996;48.138;11.538;2023-07-16T01:08:41;23.21;63.56
69731;SHT31;56996;48.138;11.538;2023-07-16T01:11:13;23.16;63.68
69731;SHT31;56996;48.138;11.538;2023-07-16T01:13:41;23.15;63.85
69731;SHT31;56996;48.138;11.538;2023-07-16T01:16:23;23.14;64.08
69731;SHT31;56996;48.138;11.538;2023-07-16T01:18:52;23.07;64.67
69731;SHT31;56996;48.138;11.538;2023-07-16T01:21:19;23.03;64.52
69731;SHT31;56996;48.138;11.538;2023-07-16T01:27:17;22.87;65.86
69731;SHT31;56996;48.138;11.538;2023-07-16T01:30:23;22.84;65.35
69731;SHT31;56996;48.138;11.538;2023-07-16T01:32:52;22.82;65.71
69731;SHT31;56996;48.138;11.538;2023-07-16T01:35:19;22.77;65.74
69731;SHT31;56996;48.138;11.538;2023-07-16T01:37:47;22.79;65.55
69731;SHT31;56996;48.138;11.538;2023-07-16T01:40:14;22.80;65.60
69731;SHT31;56996;48.138;11.538;2023-07-16T01:42:41;22.81;66.13
69731;SHT31;56996;48.138;11.538;2023-07-16T01:45:09;22.76;66.05
69731;SHT31;56996;48.138;11.538;2023-07-16T01:47:49;22.75;66.33
69731;SHT31;56996;48.138;11.538;2023-07-16T01:50:42;22.71;66.75
69731;SHT31;56996;48.138;11.538;2023-07-16T01:53:08;22.64;67.70
69731;SHT31;56996;48.138;11.538;2023-07-16T01:55:35;22.56;67.88
69731;SHT31;56996;48.138;11.538;2023-07-16T01:58:02;22.52;67.35
69731;SHT31;56996;48.138;11.538;2023-07-16T02:00:29;22.56;67.20
69731;SHT31;56996;48.138;11.538;2023-07-16T02:02:56;22.58;67.35
69731;SHT31;56996;48.138;11.538;2023-07-16T02:05:23;22.59;67.42
69731;SHT31;56996;48.138;11.538;2023-07-16T02:07:49;22.63;67.27
69731;SHT31;56996;48.138;11.538;2023-07-16T02:10:17;22.66;67.26
69731;SHT31;56996;48.138;11.538;2023-07-16T02:12:46;22.69;67.29
69731;SHT31;56996;48.138;11.538;2023-07-16T02:15:13;22.69;67.31
69731;SHT31;56996;48.138;11.538;2023-07-16T02:17:41;22.71;67.26
69731;SHT31;56996;48.138;11.538;2023-07-16T02:20:08;22.73;67.20
69731;SHT31;56996;48.138;11.538;2023-07-16T02:22:37;22.76;67.25
69731;SHT31;56996;48.138;11.538;2023-07-16T02:25:04;22.76;67.21
69731;SHT31;56996;48.138;11.538;2023-07-16T02:27:32;22.78;67.21
69731;SHT31;56996;48.138;11.538;2023-07-16T02:29:58;22.79;67.17
69731;SHT31;56996;48.138;11.538;2023-07-16T02:32:25;22.82;67.07
69731;SHT31;56996;48.138;11.538;2023-07-16T02:34:52;22.85;66.96
69731;SHT31;56996;48.138;11.538;2023-07-16T02:37:19;22.87;66.91
69731;SHT31;56996;48.138;11.538;2023-07-16T02:39:45;22.87;66.99
69731;SHT31;56996;48.138;11.538;2023-07-16T02:42:15;22.89;66.95
69731;SHT31;56996;48.138;11.538;2023-07-16T02:44:43;22.86;67.07
69731;SHT31;56996;48.138;11.538;2023-07-16T02:47:11;22.86;67.02
69731;SHT31;56996;48.138;11.538;2023-07-16T02:49:38;22.88;66.99
69731;SHT31;56996;48.138;11.538;2023-07-16T02:52:05;22.90;66.89
69731;SHT31;56996;48.138;11.538;2023-07-16T02:54:34;22.92;66.88
69731;SHT31;56996;48.138;11.538;2023-07-16T02:57:02;22.92;66.93
69731;SHT31;56996;48.138;11.538;2023-07-16T02:59:30;22.88;66.99
69731;SHT31;56996;48.138;11.538;2023-07-16T03:01:57;22.87;66.75
69731;SHT31;56996;48.138;11.538;2023-07-16T03:04:23;22.89;66.41
69731;SHT31;56996;48.138;11.538;2023-07-16T03:06:51;22.92;66.47
69731;SHT31;56996;48.138;11.538;2023-07-16T03:09:18;22.91;66.34
69731;SHT31;56996;48.138;11.538;2023-07-16T03:11:44;22.90;66.21
69731;SHT31;56996;48.138;11.538;2023-07-16T03:14:11;22.89;66.00
69731;SHT31;56996;48.138;11.538;2023-07-16T03:16:38;22.90;66.24
69731;SHT31;56996;48.138;11.538;2023-07-16T03:19:05;22.84;66.68
69731;SHT31;56996;48.138;11.538;2023-07-16T03:21:32;22.83;67.16
69731;SHT31;56996;48.138;11.538;2023-07-16T03:23:59;22.75;67.60
69731;SHT31;56996;48.138;11.538;2023-07-16T03:26:26;22.70;67.64
69731;SHT31;56996;48.138;11.538;2023-07-16T03:28:53;22.66;67.44
69731;SHT31;56996;48.138;11.538;2023-07-16T03:31:19;22.67;67.61
69731;SHT31;56996;48.138;11.538;2023-07-16T03:33:48;22.66;67.52
69731;SHT31;56996;48.138;11.538;2023-07-16T03:36:15;22.72;67.51
69731;SHT31;56996;48.138;11.538;2023-07-16T03:38:43;22.73;67.63
69731;SHT31;56996;48.138;11.538;2023-07-16T03:41:10;22.64;67.60
69731;SHT31;56996;48.138;11.538;2023-07-16T03:43:37;22.62;67.28
69731;SHT31;56996;48.138;11.538;2023-07-16T03:46:14;22.64;67.13
69731;SHT31;56996;48.138;11.538;2023-07-16T03:48:41;22.60;67.34
69731;SHT31;56996;48.138;11.538;2023-07-16T03:51:08;22.58;67.12
69731;SHT31;56996;48.138;11.538;2023-07-16T03:53:35;22.56;67.18
69731;SHT31;56996;48.138;11.538;2023-07-16T03:56:03;22.52;67.32
69731;SHT31;56996;48.138;11.538;2023-07-16T03:58:30;22.47;67.36
69731;SHT31;56996;48.138;11.538;2023-07-16T04:00:57;22.46;67.24
69731;SHT31;56996;48.138;11.538;2023-07-16T04:03:24;22.48;67.04
69731;SHT31;56996;48.138;11.538;2023-07-16T04:05:52;22.48;66.92
69731;SHT31;56996;48.138;11.538;2023-07-16T04:08:18;22.49;66.83
69731;SHT31;56996;48.138;11.538;2023-07-16T04:10:45;22.52;66.90
69731;SHT31;56996;48.138;11.538;2023-07-16T04:13:12;22.53;67.01
69731;SHT31;56996;48.138;11.538;2023-07-16T04:15:38;22.55;67.95
69731;SHT31;56996;48.138;11.538;2023-07-16T04:18:05;22.60;68.68
69731;SHT31;56996;48.138;11.538;2023-07-16T04:20:32;22.54;69.45
69731;SHT31;56996;48.138;11.538;2023-07-16T04:23:00;22.46;70.57
69731;SHT31;56996;48.138;11.538;2023-07-16T04:25:27;22.39;70.70
69731;SHT31;56996;48.138;11.538;2023-07-16T04:27:54;22.37;71.33
69731;SHT31;56996;48.138;11.538;2023-07-16T04:30:21;22.36;71.17
69731;SHT31;56996;48.138;11.538;2023-07-16T04:32:48;22.31;71.18
69731;SHT31;56996;48.138;11.538;2023-07-16T04:35:15;22.32;70.81
69731;SHT31;56996;48.138;11.538;2023-07-16T04:37:42;22.29;70.26
69731;SHT31;56996;48.138;11.538;2023-07-16T04:40:09;22.25;70.70
69731;SHT31;56996;48.138;11.538;2023-07-16T04:42:36;22.19;70.60
69731;SHT31;56996;48.138;11.538;2023-07-16T04:45:03;22.13;70.96
69731;SHT31;56996;48.138;11.538;2023-07-16T04:47:31;22.10;71.47
69731;SHT31;56996;48.138;11.538;2023-07-16T04:49:58;22.07;71.67
69731;SHT31;56996;48.138;11.538;2023-07-16T04:52:26;22.01;72.15
69731;SHT31;56996;48.138;11.538;2023-07-16T04:54:52;22.04;72.41
69731;SHT31;56996;48.138;11.538;2023-07-16T04:57:19;22.07;71.91
69731;SHT31;56996;48.138;11.538;2023-07-16T04:59:49;22.06;71.27
69731;SHT31;56996;48.138;11.538;2023-07-16T05:02:15;22.05;71.82
69731;SHT31;56996;48.138;11.538;2023-07-16T05:04:43;22.02;71.99
69731;SHT31;56996;48.138;11.538;2023-07-16T05:07:10;22.01;72.18
69731;SHT31;56996;48.138;11.538;2023-07-16T05:09:37;22.00;72.26
69731;SHT31;56996;48.138;11.538;2023-07-16T05:12:04;22.00;72.54
69731;SHT31;56996;48.138;11.538;2023-07-16T05:14:31;21.98;72.70
69731;SHT31;56996;48.138;11.538;2023-07-16T05:17:12;21.99;72.60
69731;SHT31;56996;48.138;11.538;2023-07-16T05:19:40;22.00;72.87
69731;SHT31;56996;48.138;11.538;2023-07-16T05:22:09;22.03;73.13
69731;SHT31;56996;48.138;11.538;2023-07-16T05:24:35;22.06;72.84
69731;SHT31;56996;48.138;11.538;2023-07-16T05:27:02;22.10;72.62
69731;SHT31;56996;48.138;11.538;2023-07-16T05:29:29;22.13;72.39
69731;SHT31;56996;48.138;11.538;2023-07-16T05:31:56;22.15;72.10
69731;SHT31;56996;48.138;11.538;2023-07-16T05:34:23;22.15;71.79
69731;SHT31;56996;48.138;11.538;2023-07-16T05:36:52;22.15;72.17
69731;SHT31;56996;48.138;11.538;2023-07-16T05:39:21;22.15;72.24
69731;SHT31;56996;48.138;11.538;2023-07-16T05:41:49;22.16;72.20
69731;SHT31;56996;48.138;11.538;2023-07-16T05:44:15;22.17;72.30
69731;SHT31;56996;48.138;11.538;2023-07-16T05:46:43;22.23;72.21
69731;SHT31;56996;48.138;11.538;2023-07-16T05:49:10;22.24;72.12
69731;SHT31;56996;48.138;11.538;2023-07-16T05:51:36;22.30;72.17
69731;SHT31;56996;48.138;11.538;2023-07-16T05:54:03;22.37;71.90
69731;SHT31;56996;48.138;11.538;2023-07-16T05:56:30;22.51;71.17
69731;SHT31;56996;48.138;11.538;2023-07-16T05:58:57;22.68;70.88
69731;SHT31;56996;48.138;11.538;2023-07-16T06:01:23;22.90;70.96
69731;SHT31;56996;48.138;11.538;2023-07-16T06:03:50;23.08;70.93
69731;SHT31;56996;48.138;11.538;2023-07-16T06:06:17;23.19;70.94
69731;SHT31;56996;48.138;11.538;2023-07-16T06:08:44;23.26;70.74
69731;SHT31;56996;48.138;11.538;2023-07-16T06:11:11;23.31;70.60
69731;SHT31;56996;48.138;11.538;2023-07-16T06:13:39;23.33;70.38
69731;SHT31;56996;48.138;11.538;2023-07-16T06:16:06;23.39;70.00
69731;SHT31;56996;48.138;11.538;2023-07-16T06:18:33;23.57;69.60
69731;SHT31;56996;48.138;11.538;2023-07-16T06:20:59;23.80;69.19
69731;SHT31;56996;48.138;11.538;2023-07-16T06:23:26;23.88;68.97
69731;SHT31;56996;48.138;11.538;2023-07-16T06:25:53;23.94;68.76
69731;SHT31;56996;48.138;11.538;2023-07-16T06:28:22;24.36;67.93
69731;SHT31;56996;48.138;11.538;2023-07-16T06:30:50;24.50;67.24
69731;SHT31;56996;48.138;11.538;2023-07-16T06:33:19;24.39;67.20
69731;SHT31;56996;48.138;11.538;2023-07-16T06:35:46;24.34;67.59
69731;SHT31;56996;48.138;11.538;2023-07-16T06:38:14;24.29;67.45
69731;SHT31;56996;48.138;11.538;2023-07-16T06:40:47;24.18;67.33
69731;SHT31;56996;48.138;11.538;2023-07-16T06:43:16;24.07;67.48
69731;SHT31;56996;48.138;11.538;2023-07-16T06:45:43;23.99;67.72
69731;SHT31;56996;48.138;11.538;2023-07-16T06:48:10;24.16;67.69
69731;SHT31;56996;48.138;11.538;2023-07-16T06:50:37;24.75;66.37
69731;SHT31;56996;48.138;11.538;2023-07-16T06:53:04;25.45;65.02
69731;SHT31;56996;48.138;11.538;2023-07-16T06:55:30;26.39;62.79
69731;SHT31;56996;48.138;11.538;2023-07-16T06:57:57;26.98;61.04
69731;SHT31;56996;48.138;11.538;2023-07-16T07:00:25;26.97;60.47
69731;SHT31;56996;48.138;11.538;2023-07-16T07:02:51;26.75;60.45
69731;SHT31;56996;48.138;11.538;2023-07-16T07:05:18;26.66;60.41
69731;SHT31;56996;48.138;11.538;2023-07-16T07:07:45;26.59;59.39
69731;SHT31;56996;48.138;11.538;2023-07-16T07:10:12;26.44;58.91
69731;SHT31;56996;48.138;11.538;2023-07-16T07:12:39;26.34;58.68
69731;SHT31;56996;48.138;11.538;2023-07-16T07:15:06;26.19;58.48
69731;SHT31;56996;48.138;11.538;2023-07-16T07:17:34;26.07;58.33
69731;SHT31;56996;48.138;11.538;2023-07-16T07:20:02;26.01;58.34
69731;SHT31;56996;48.138;11.538;2023-07-16T07:22:30;25.92;58.42
69731;SHT31;56996;48.138;11.538;2023-07-16T07:24:58;25.84;58.51
69731;SHT31;56996;48.138;11.538;2023-07-16T07:27:24;25.75;58.17
69731;SHT31;56996;48.138;11.538;2023-07-16T07:29:51;25.69;58.24
69731;SHT31;56996;48.138;11.538;2023-07-16T07:32:19;25.64;58.35
69731;SHT31;56996;48.138;11.538;2023-07-16T07:34:47;25.59;58.39
69731;SHT31;56996;48.138;11.538;2023-07-16T07:37:14;25.55;58.05
69731;SHT31;56996;48.138;11.538;2023-07-16T07:39:41;25.46;57.81
69731;SHT31;56996;48.138;11.538;2023-07-16T07:42:07;25.38;58.01
69731;SHT31;56996;48.138;11.538;2023-07-16T07:44:36;25.37;58.06
69731;SHT31;56996;48.138;11.538;2023-07-16T07:47:03;25.36;57.95
69731;SHT31;56996;48.138;11.538;2023-07-16T07:49:31;25.41;58.09
69731;SHT31;56996;48.138;11.538;2023-07-16T07:51:58;25.42;57.59
69731;SHT31;56996;48.138;11.538;2023-07-16T07:54:25;25.47;57.74
69731;SHT31;56996;48.138;11.538;2023-07-16T07:56:51;25.50;57.40
69731;SHT31;56996;48.138;11.538;2023-07-16T07:59:18;25.51;57.31
69731;SHT31;56996;48.138;11.538;2023-07-16T08:01:45;25.58;57.45
69731;SHT31;56996;48.138;11.538;2023-07-16T08:04:12;25.62;57.43
69731;SHT31;56996;48.138;11.538;2023-07-16T08:06:39;25.61;57.51
69731;SHT31;56996;48.138;11.538;2023-07-16T08:09:06;25.63;57.52
69731;SHT31;56996;48.138;11.538;2023-07-16T08:11:33;25.71;57.45
69731;SHT31;56996;48.138;11.538;2023-07-16T08:14:00;25.78;57.16
69731;SHT31;56996;48.138;11.538;2023-07-16T08:16:26;25.81;57.10
69731;SHT31;56996;48.138;11.538;2023-07-16T08:18:53;25.85;56.90
69731;SHT31;56996;48.138;11.538;2023-07-16T08:21:20;25.85;56.82
69731;SHT31;56996;48.138;11.538;2023-07-16T08:23:50;25.94;56.60
69731;SHT31;56996;48.138;11.538;2023-07-16T08:26:17;26.19;55.86
69731;SHT31;56996;48.138;11.538;2023-07-16T08:28:44;26.89;54.60
69731;SHT31;56996;48.138;11.538;2023-07-16T08:31:11;27.86;52.17
69731;SHT31;56996;48.138;11.538;2023-07-16T08:33:39;28.29;51.50
69731;SHT31;56996;48.138;11.538;2023-07-16T08:36:06;28.52;51.33
69731;SHT31;56996;48.138;11.538;2023-07-16T08:38:33;28.52;49.92
69731;SHT31;56996;48.138;11.538;2023-07-16T08:41:00;28.06;50.71
69731;SHT31;56996;48.138;11.538;2023-07-16T08:43:28;28.04;50.54
69731;SHT31;56996;48.138;11.538;2023-07-16T08:45:56;28.16;49.27
69731;SHT31;56996;48.138;11.538;2023-07-16T08:48:23;28.30;49.14
69731;SHT31;56996;48.138;11.538;2023-07-16T08:50:50;28.80;48.45
69731;SHT31;56996;48.138;11.538;2023-07-16T08:53:17;29.41;46.64
69731;SHT31;56996;48.138;11.538;2023-07-16T08:55:45;29.64;45.83
69731;SHT31;56996;48.138;11.538;2023-07-16T08:58:16;29.69;45.23
69731;SHT31;56996;48.138;11.538;2023-07-16T09:00:44;29.68;45.57
69731;SHT31;56996;48.138;11.538;2023-07-16T09:03:11;29.70;45.71
69731;SHT31;56996;48.138;11.538;2023-07-16T09:05:40;29.72;45.37
69731;SHT31;56996;48.138;11.538;2023-07-16T09:08:07;29.64;45.38
69731;SHT31;56996;48.138;11.538;2023-07-16T09:10:34;29.63;45.50
69731;SHT31;56996;48.138;11.538;2023-07-16T09:13:01;29.63;45.53
69731;SHT31;56996;48.138;11.538;2023-07-16T09:15:28;29.61;45.21
69731;SHT31;56996;48.138;11.538;2023-07-16T09:17:56;29.80;44.93
69731;SHT31;56996;48.138;11.538;2023-07-16T09:20:24;30.01;44.42
69731;SHT31;56996;48.138;11.538;2023-07-16T09:22:53;29.97;44.09
69731;SHT31;56996;48.138;11.538;2023-07-16T09:25:27;29.86;43.76
69731;SHT31;56996;48.138;11.538;2023-07-16T09:27:57;29.69;42.94
69731;SHT31;56996;48.138;11.538;2023-07-16T09:30:32;29.58;42.32
69731;SHT31;56996;48.138;11.538;2023-07-16T09:33:16;29.81;42.62
69731;SHT31;56996;48.138;11.538;2023-07-16T09:35:49;30.06;42.47
69731;SHT31;56996;48.138;11.538;2023-07-16T09:38:17;30.19;42.00
69731;SHT31;56996;48.138;11.538;2023-07-16T09:40:44;30.59;41.79
69731;SHT31;56996;48.138;11.538;2023-07-16T09:43:12;31.01;40.95
69731;SHT31;56996;48.138;11.538;2023-07-16T09:45:42;31.40;40.59
69731;SHT31;56996;48.138;11.538;2023-07-16T09:48:10;31.80;39.72
69731;SHT31;56996;48.138;11.538;2023-07-16T09:50:37;31.87;39.31
69731;SHT31;56996;48.138;11.538;2023-07-16T09:53:09;31.88;39.55
69731;SHT31;56996;48.138;11.538;2023-07-16T09:55:36;31.92;39.61
69731;SHT31;56996;48.138;11.538;2023-07-16T09:58:06;31.75;39.65
69731;SHT31;56996;48.138;11.538;2023-07-16T10:00:35;31.58;39.23
69731;SHT31;56996;48.138;11.538;2023-07-16T10:03:05;31.26;39.73
69731;SHT31;56996;48.138;11.538;2023-07-16T10:05:36;31.18;39.22
69731;SHT31;56996;48.138;11.538;2023-07-16T10:08:04;30.98;39.46
69731;SHT31;56996;48.138;11.538;2023-07-16T10:13:22;30.77;39.49
69731;SHT31;56996;48.138;11.538;2023-07-16T10:15:50;30.68;39.46
69731;SHT31;56996;48.138;11.538;2023-07-16T10:21:01;30.62;39.72
69731;SHT31;56996;48.138;11.538;2023-07-16T10:23:41;30.59;39.80
69731;SHT31;56996;48.138;11.538;2023-07-16T10:26:11;30.61;39.75
69731;SHT31;56996;48.138;11.538;2023-07-16T10:28:45;30.60;39.42
69731;SHT31;56996;48.138;11.538;2023-07-16T10:31:17;30.49;40.01
69731;SHT31;56996;48.138;11.538;2023-07-16T10:34:03;30.62;40.04
69731;SHT31;56996;48.138;11.538;2023-07-16T10:36:38;30.60;40.08
69731;SHT31;56996;48.138;11.538;2023-07-16T10:39:06;30.51;39.83
69731;SHT31;56996;48.138;11.538;2023-07-16T10:41:33;30.36;39.65
69731;SHT31;56996;48.138;11.538;2023-07-16T10:44:00;30.28;39.79
69731;SHT31;56996;48.138;11.538;2023-07-16T10:46:27;30.29;39.86
69731;SHT31;56996;48.138;11.538;2023-07-16T10:48:54;30.30;39.99
69731;SHT31;56996;48.138;11.538;2023-07-16T10:51:27;30.20;39.93
69731;SHT31;56996;48.138;11.538;2023-07-16T10:53:57;30.14;39.89
69731;SHT31;56996;48.138;11.538;2023-07-16T10:56:24;30.17;39.91
69731;SHT31;56996;48.138;11.538;2023-07-16T10:58:52;30.13;39.56
69731;SHT31;56996;48.138;11.538;2023-07-16T11:01:18;30.04;39.64
69731;SHT31;56996;48.138;11.538;2023-07-16T11:03:46;30.02;39.42
69731;SHT31;56996;48.138;11.538;2023-07-16T11:06:13;30.05;39.39
69731;SHT31;56996;48.138;11.538;2023-07-16T11:08:42;30.04;39.25
69731;SHT31;56996;48.138;11.538;2023-07-16T11:11:09;30.00;39.46
69731;SHT31;56996;48.138;11.538;2023-07-16T11:13:36;29.93;39.55
69731;SHT31;56996;48.138;11.538;2023-07-16T11:16:09;29.92;39.60
69731;SHT31;56996;48.138;11.538;2023-07-16T11:18:37;29.84;39.57
69731;SHT31;56996;48.138;11.538;2023-07-16T11:21:04;29.82;39.60
69731;SHT31;56996;48.138;11.538;2023-07-16T11:23:36;29.84;39.71
69731;SHT31;56996;48.138;11.538;2023-07-16T11:26:03;29.94;39.66
69731;SHT31;56996;48.138;11.538;2023-07-16T11:28:37;30.04;39.33
69731;SHT31;56996;48.138;11.538;2023-07-16T11:31:10;30.10;39.41
69731;SHT31;56996;48.138;11.538;2023-07-16T11:33:44;30.28;39.14
69731;SHT31;56996;48.138;11.538;2023-07-16T11:36:12;30.19;39.27
69731;SHT31;56996;48.138;11.538;2023-07-16T11:38:40;30.14;39.42
69731;SHT31;56996;48.138;11.538;2023-07-16T11:41:07;30.12;39.28
69731;SHT31;56996;48.138;11.538;2023-07-16T11:43:34;30.19;39.32
69731;SHT31;56996;48.138;11.538;2023-07-16T11:46:03;30.30;39.55
69731;SHT31;56996;48.138;11.538;2023-07-16T11:48:41;30.23;40.42
69731;SHT31;56996;48.138;11.538;2023-07-16T11:51:08;30.16;40.84
69731;SHT31;56996;48.138;11.538;2023-07-16T11:53:35;30.24;40.91
69731;SHT31;56996;48.138;11.538;2023-07-16T11:56:05;30.46;40.60
69731;SHT31;56996;48.138;11.538;2023-07-16T11:58:31;30.60;40.21
69731;SHT31;56996;48.138;11.538;2023-07-16T12:00:58;30.53;40.11
69731;SHT31;56996;48.138;11.538;2023-07-16T12:03:25;30.33;40.18
69731;SHT31;56996;48.138;11.538;2023-07-16T12:05:52;30.15;40.35
69731;SHT31;56996;48.138;11.538;2023-07-16T12:08:19;30.03;40.53
69731;SHT31;56996;48.138;11.538;2023-07-16T12:10:46;29.81;40.88
69731;SHT31;56996;48.138;11.538;2023-07-16T12:13:13;29.69;41.06
69731;SHT31;56996;48.138;11.538;2023-07-16T12:15:40;29.63;41.32
69731;SHT31;56996;48.138;11.538;2023-07-16T12:18:07;29.67;41.06
69731;SHT31;56996;48.138;11.538;2023-07-16T12:20:34;29.70;40.92
69731;SHT31;56996;48.138;11.538;2023-07-16T12:23:02;29.75;41.01
69731;SHT31;56996;48.138;11.538;2023-07-16T12:25:29;29.84;41.26
69731;SHT31;56996;48.138;11.538;2023-07-16T12:27:56;29.95;41.60
69731;SHT31;56996;48.138;11.538;2023-07-16T12:30:24;29.99;41.55
69731;SHT31;56996;48.138;11.538;2023-07-16T12:32:51;29.89;41.84
69731;SHT31;56996;48.138;11.538;2023-07-16T12:35:18;29.93;41.83
69731;SHT31;56996;48.138;11.538;2023-07-16T12:37:45;29.92;41.84
69731;SHT31;56996;48.138;11.538;2023-07-16T12:40:12;29.86;41.90
69731;SHT31;56996;48.138;11.538;2023-07-16T12:42:38;29.91;42.07
69731;SHT31;56996;48.138;11.538;2023-07-16T12:45:05;29.87;41.87
69731;SHT31;56996;48.138;11.538;2023-07-16T12:47:33;29.74;42.02
69731;SHT31;56996;48.138;11.538;2023-07-16T12:50:00;29.64;42.17
69731;SHT31;56996;48.138;11.538;2023-07-16T12:52:27;29.62;42.32
69731;SHT31;56996;48.138;11.538;2023-07-16T12:54:54;29.53;44.09
69731;SHT31;56996;48.138;11.538;2023-07-16T12:57:24;29.44;44.98
69731;SHT31;56996;48.138;11.538;2023-07-16T12:59:50;29.53;44.92
69731;SHT31;56996;48.138;11.538;2023-07-16T13:02:17;29.61;44.74
69731;SHT31;56996;48.138;11.538;2023-07-16T13:04:44;29.65;44.74
69731;SHT31;56996;48.138;11.538;2023-07-16T13:07:11;29.57;44.79
69731;SHT31;56996;48.138;11.538;2023-07-16T13:09:39;29.65;44.62
69731;SHT31;56996;48.138;11.538;2023-07-16T13:12:06;29.60;44.60
69731;SHT31;56996;48.138;11.538;2023-07-16T13:14:33;29.42;44.83
69731;SHT31;56996;48.138;11.538;2023-07-16T13:17:00;29.44;44.83
69731;SHT31;56996;48.138;11.538;2023-07-16T13:19:28;29.57;44.68
69731;SHT31;56996;48.138;11.538;2023-07-16T13:21:54;29.62;44.35
69731;SHT31;56996;48.138;11.538;2023-07-16T13:24:21;29.52;44.53
69731;SHT31;56996;48.138;11.538;2023-07-16T13:26:48;29.51;44.44
69731;SHT31;56996;48.138;11.538;2023-07-16T13:29:15;29.50;45.03
69731;SHT31;56996;48.138;11.538;2023-07-16T13:31:41;29.58;45.21
69731;SHT31;56996;48.138;11.538;2023-07-16T13:34:08;29.61;45.11
69731;SHT31;56996;48.138;11.538;2023-07-16T13:36:35;29.72;44.96
69731;SHT31;56996;48.138;11.538;2023-07-16T13:39:01;29.78;44.68
69731;SHT31;56996;48.138;11.538;2023-07-16T13:41:31;29.95;44.48
69731;SHT31;56996;48.138;11.538;2023-07-16T13:43:58;30.11;44.28
69731;SHT31;56996;48.138;11.538;2023-07-16T13:46:25;30.23;44.08
69731;SHT31;56996;48.138;11.538;2023-07-16T13:48:52;30.23;43.84
69731;SHT31;56996;48.138;11.538;2023-07-16T13:51:24;30.39;43.65
69731;SHT31;56996;48.138;11.538;2023-07-16T13:53:52;30.59;43.10
69731;SHT31;56996;48.138;11.538;2023-07-16T13:56:19;30.51;43.11
69731;SHT31;56996;48.138;11.538;2023-07-16T13:58:46;30.43;43.05
69731;SHT31;56996;48.138;11.538;2023-07-16T14:01:13;30.52;43.33
69731;SHT31;56996;48.138;11.538;2023-07-16T14:03:40;30.60;43.17
69731;SHT31;56996;48.138;11.538;2023-07-16T14:06:07;30.46;43.57
69731;SHT31;56996;48.138;11.538;2023-07-16T14:08:34;30.37;43.69
69731;SHT31;56996;48.138;11.538;2023-07-16T14:11:02;30.52;43.45
69731;SHT31;56996;48.138;11.538;2023-07-16T14:13:29;30.55;43.38
69731;SHT31;56996;48.138;11.538;2023-07-16T14:15:56;30.39;43.73
69731;SHT31;56996;48.138;11.538;2023-07-16T14:18:22;30.21;44.00
69731;SHT31;56996;48.138;11.538;2023-07-16T14:20:50;30.01;44.25
69731;SHT31;56996;48.138;11.538;2023-07-16T14:23:17;29.90;44.41
69731;SHT31;56996;48.138;11.538;2023-07-16T14:25:43;29.70;44.84
69731;SHT31;56996;48.138;11.538;2023-07-16T14:28:10;29.47;45.41
69731;SHT31;56996;48.138;11.538;2023-07-16T14:30:37;29.25;45.87
69731;SHT31;56996;48.138;11.538;2023-07-16T14:33:04;29.06;46.23
69731;SHT31;56996;48.138;11.538;2023-07-16T14:35:32;28.87;46.43
69731;SHT31;56996;48.138;11.538;2023-07-16T14:38:03;28.77;46.66
69731;SHT31;56996;48.138;11.538;2023-07-16T14:40:30;28.66;46.72
69731;SHT31;56996;48.138;11.538;2023-07-16T14:42:57;28.66;46.78
69731;SHT31;56996;48.138;11.538;2023-07-16T14:45:24;28.67;47.05
69731;SHT31;56996;48.138;11.538;2023-07-16T14:47:51;28.52;47.24
69731;SHT31;56996;48.138;11.538;2023-07-16T14:50:18;28.39;47.42
69731;SHT31;56996;48.138;11.538;2023-07-16T14:52:45;28.43;47.33
69731;SHT31;56996;48.138;11.538;2023-07-16T14:55:12;28.51;47.17
69731;SHT31;56996;48.138;11.538;2023-07-16T14:57:38;28.50;47.18
69731;SHT31;56996;48.138;11.538;2023-07-16T15:00:05;28.45;47.26
69731;SHT31;56996;48.138;11.538;2023-07-16T15:02:35;28.39;47.34
69731;SHT31;56996;48.138;11.538;2023-07-16T15:05:02;28.37;47.48
69731;SHT31;56996;48.138;11.538;2023-07-16T15:07:31;28.33;47.46
69731;SHT31;56996;48.138;11.538;2023-07-16T15:09:57;28.33;47.45
69731;SHT31;56996;48.138;11.538;2023-07-16T15:12:24;28.24;47.56
69731;SHT31;56996;48.138;11.538;2023-07-16T15:14:52;28.14;47.75
69731;SHT31;56996;48.138;11.538;2023-07-16T15:17:19;28.14;47.77
69731;SHT31;56996;48.138;11.538;2023-07-16T15:19:46;28.13;47.59
69731;SHT31;56996;48.138;11.538;2023-07-16T15:22:12;28.18;47.50
69731;SHT31;56996;48.138;11.538;2023-07-16T15:24:42;28.10;47.62
69731;SHT31;56996;48.138;11.538;2023-07-16T15:27:09;28.03;47.71
69731;SHT31;56996;48.138;11.538;2023-07-16T15:29:35;27.93;47.86
69731;SHT31;56996;48.138;11.538;2023-07-16T15:32:02;27.91;47.86